Somerset, Virginia
Current Conditions -  °F | °C
As of 11:15 PM on Sunday 23 Nov 2014 (Local Time) from KGVE Reporting Station
Haze Haze  
Wind Chill: 51°   Ceiling: 400
Heat Index: 51°   Visibility: 3mi
Dew Point: 51°   Wind: 0mph
Humidity: 99%   Direction: NA
Pressure: 29.75"   Gusts: NA
Location:  38.21°N, 78.22°W
Report Text: KGVE 240415Z AUTO 00000KT 3SM BR OVC004 11/11 A2975 RMK AO1 T01080106
Loading
Personal Weather Stations






























Interactive Weather Map New forecast layout! Learn more

10-Day Weather Forecast

Advertisements
Track Severe Weather on mobile